sensor_id;sensor_type;location;lat;lon;timestamp;pressure;altitude;pressure_sealevel;temperature;humidity
77410;BME280;66481;51.332;22.804;2023-09-19T00:02:12;99104.63;;;16.15;100.00
77410;BME280;66481;51.332;22.804;2023-09-19T00:06:13;99106.47;;;16.14;100.00
77410;BME280;66481;51.332;22.804;2023-09-19T00:10:16;99101.97;;;16.15;100.00
77410;BME280;66481;51.332;22.804;2023-09-19T00:14:16;99090.94;;;16.10;100.00
77410;BME280;66481;51.332;22.804;2023-09-19T00:18:19;99091.56;;;16.04;100.00
77410;BME280;66481;51.332;22.804;2023-09-19T00:22:21;99086.59;;;16.01;100.00
77410;BME280;66481;51.332;22.804;2023-09-19T00:26:22;99084.72;;;15.93;100.00
77410;BME280;66481;51.332;22.804;2023-09-19T00:30:23;99081.72;;;15.88;100.00
77410;BME280;66481;51.332;22.804;2023-09-19T00:34:24;99082.38;;;15.90;100.00
77410;BME280;66481;51.332;22.804;2023-09-19T00:38:28;99082.06;;;15.93;100.00
77410;BME280;66481;51.332;22.804;2023-09-19T00:42:29;99072.53;;;15.82;100.00
77410;BME280;66481;51.332;22.804;2023-09-19T00:46:31;99073.88;;;15.78;100.00
77410;BME280;66481;51.332;22.804;2023-09-19T00:50:36;99061.44;;;15.69;100.00
77410;BME280;66481;51.332;22.804;2023-09-19T00:54:37;99061.94;;;15.64;100.00
77410;BME280;66481;51.332;22.804;2023-09-19T00:58:38;99067.78;;;15.59;100.00
77410;BME280;66481;51.332;22.804;2023-09-19T01:02:39;99066.75;;;15.52;100.00
77410;BME280;66481;51.332;22.804;2023-09-19T01:06:40;99049.53;;;15.47;100.00
77410;BME280;66481;51.332;22.804;2023-09-19T01:10:52;99052.19;;;15.38;100.00
77410;BME280;66481;51.332;22.804;2023-09-19T01:14:59;99046.50;;;15.33;100.00
77410;BME280;66481;51.332;22.804;2023-09-19T01:28:32;99025.47;;;15.22;100.00
77410;BME280;66481;51.332;22.804;2023-09-19T01:32:39;99028.28;;;15.20;100.00
77410;BME280;66481;51.332;22.804;2023-09-19T01:36:41;99018.13;;;15.16;100.00
77410;BME280;66481;51.332;22.804;2023-09-19T01:40:43;99008.59;;;15.13;100.00
77410;BME280;66481;51.332;22.804;2023-09-19T01:44:59;99005.81;;;15.23;100.00
77410;BME280;66481;51.332;22.804;2023-09-19T01:53:50;99014.16;;;15.28;100.00
77410;BME280;66481;51.332;22.804;2023-09-19T01:58:16;98995.50;;;15.28;100.00
77410;BME280;66481;51.332;22.804;2023-09-19T02:02:20;99002.19;;;15.32;100.00
77410;BME280;66481;51.332;22.804;2023-09-19T02:06:23;98997.50;;;15.26;100.00
77410;BME280;66481;51.332;22.804;2023-09-19T02:10:26;98988.53;;;15.35;100.00
77410;BME280;66481;51.332;22.804;2023-09-19T02:14:27;98982.69;;;15.32;100.00
77410;BME280;66481;51.332;22.804;2023-09-19T02:18:30;98981.53;;;15.42;100.00
77410;BME280;66481;51.332;22.804;2023-09-19T02:22:31;98988.06;;;15.40;100.00
77410;BME280;66481;51.332;22.804;2023-09-19T02:26:33;98967.56;;;15.40;100.00
77410;BME280;66481;51.332;22.804;2023-09-19T02:30:37;98979.25;;;15.56;100.00
77410;BME280;66481;51.332;22.804;2023-09-19T02:34:38;98968.09;;;15.52;100.00
77410;BME280;66481;51.332;22.804;2023-09-19T02:38:40;98966.44;;;15.59;100.00
77410;BME280;66481;51.332;22.804;2023-09-19T02:42:42;98969.28;;;15.66;100.00
77410;BME280;66481;51.332;22.804;2023-09-19T02:46:43;98959.06;;;15.53;100.00
77410;BME280;66481;51.332;22.804;2023-09-19T02:50:44;98959.25;;;15.60;100.00
77410;BME280;66481;51.332;22.804;2023-09-19T02:54:45;98956.75;;;15.58;100.00
77410;BME280;66481;51.332;22.804;2023-09-19T02:58:46;98955.09;;;15.66;100.00
77410;BME280;66481;51.332;22.804;2023-09-19T03:02:55;98950.44;;;15.68;100.00
77410;BME280;66481;51.332;22.804;2023-09-19T03:06:56;98935.44;;;15.67;100.00
77410;BME280;66481;51.332;22.804;2023-09-19T03:11:01;98936.56;;;15.64;100.00
77410;BME280;66481;51.332;22.804;2023-09-19T03:15:04;98936.41;;;15.66;100.00
77410;BME280;66481;51.332;22.804;2023-09-19T03:19:05;98943.78;;;15.72;100.00
77410;BME280;66481;51.332;22.804;2023-09-19T03:23:05;98933.94;;;15.72;100.00
77410;BME280;66481;51.332;22.804;2023-09-19T03:27:11;98930.13;;;15.75;100.00
77410;BME280;66481;51.332;22.804;2023-09-19T03:31:14;98921.47;;;15.81;100.00
77410;BME280;66481;51.332;22.804;2023-09-19T03:35:16;98919.78;;;15.88;100.00
77410;BME280;66481;51.332;22.804;2023-09-19T03:39:17;98907.97;;;15.91;100.00
77410;BME280;66481;51.332;22.804;2023-09-19T03:43:18;98916.63;;;16.01;99.58
77410;BME280;66481;51.332;22.804;2023-09-19T03:47:19;98915.13;;;16.07;99.38
77410;BME280;66481;51.332;22.804;2023-09-19T03:51:20;98905.97;;;16.09;99.02
77410;BME280;66481;51.332;22.804;2023-09-19T03:55:22;98901.75;;;16.15;98.51
77410;BME280;66481;51.332;22.804;2023-09-19T03:59:23;98905.44;;;16.22;98.25
77410;BME280;66481;51.332;22.804;2023-09-19T04:03:24;98907.75;;;16.17;98.17
77410;BME280;66481;51.332;22.804;2023-09-19T04:07:35;98904.94;;;16.19;98.50
77410;BME280;66481;51.332;22.804;2023-09-19T04:11:36;98904.78;;;16.12;98.43
77410;BME280;66481;51.332;22.804;2023-09-19T04:15:37;98904.44;;;16.07;98.84
77410;BME280;66481;51.332;22.804;2023-09-19T04:19:38;98901.78;;;16.07;98.71
77410;BME280;66481;51.332;22.804;2023-09-19T04:23:39;98897.44;;;15.97;99.08
77410;BME280;66481;51.332;22.804;2023-09-19T04:27:40;98896.94;;;16.10;98.51
77410;BME280;66481;51.332;22.804;2023-09-19T04:31:44;98889.06;;;16.25;97.91
77410;BME280;66481;51.332;22.804;2023-09-19T04:35:49;98881.38;;;16.30;97.37
77410;BME280;66481;51.332;22.804;2023-09-19T04:39:50;98876.47;;;16.50;96.63
77410;BME280;66481;51.332;22.804;2023-09-19T04:43:51;98874.69;;;16.82;94.87
77410;BME280;66481;51.332;22.804;2023-09-19T04:47:53;98877.53;;;16.81;94.66
77410;BME280;66481;51.332;22.804;2023-09-19T04:51:55;98873.56;;;16.77;94.69
77410;BME280;66481;51.332;22.804;2023-09-19T04:55:56;98873.41;;;16.70;95.30
77410;BME280;66481;51.332;22.804;2023-09-19T04:59:58;98866.59;;;16.59;95.51
77410;BME280;66481;51.332;22.804;2023-09-19T05:03:59;98874.66;;;16.51;95.87
77410;BME280;66481;51.332;22.804;2023-09-19T05:08:00;98862.94;;;16.52;96.17
77410;BME280;66481;51.332;22.804;2023-09-19T05:12:04;98870.44;;;16.57;96.42
77410;BME280;66481;51.332;22.804;2023-09-19T05:16:05;98867.75;;;16.65;96.46
77410;BME280;66481;51.332;22.804;2023-09-19T05:20:07;98866.22;;;17.10;94.67
77410;BME280;66481;51.332;22.804;2023-09-19T05:24:16;98858.16;;;17.64;92.37
77410;BME280;66481;51.332;22.804;2023-09-19T05:28:17;98859.63;;;17.90;89.82
77410;BME280;66481;51.332;22.804;2023-09-19T05:32:19;98849.75;;;17.91;89.69
77410;BME280;66481;51.332;22.804;2023-09-19T05:36:20;98842.69;;;18.28;88.60
77410;BME280;66481;51.332;22.804;2023-09-19T05:40:21;98842.13;;;18.32;88.49
77410;BME280;66481;51.332;22.804;2023-09-19T05:44:22;98848.75;;;18.51;87.60
77410;BME280;66481;51.332;22.804;2023-09-19T05:48:23;98849.63;;;19.03;85.63
77410;BME280;66481;51.332;22.804;2023-09-19T05:52:24;98849.84;;;19.88;82.67
77410;BME280;66481;51.332;22.804;2023-09-19T05:56:25;98837.91;;;20.60;80.39
77410;BME280;66481;51.332;22.804;2023-09-19T06:00:27;98835.69;;;21.39;77.50
77410;BME280;66481;51.332;22.804;2023-09-19T06:04:29;98828.69;;;21.71;76.45
77410;BME280;66481;51.332;22.804;2023-09-19T06:08:32;98822.69;;;22.03;74.60
77410;BME280;66481;51.332;22.804;2023-09-19T06:12:41;98828.03;;;22.88;71.56
77410;BME280;66481;51.332;22.804;2023-09-19T06:16:45;98825.22;;;22.69;70.59
77410;BME280;66481;51.332;22.804;2023-09-19T06:20:47;98819.13;;;22.36;71.00
77410;BME280;66481;51.332;22.804;2023-09-19T06:24:50;98821.22;;;22.00;71.80
77410;BME280;66481;51.332;22.804;2023-09-19T06:28:50;98822.75;;;22.61;70.32
77410;BME280;66481;51.332;22.804;2023-09-19T06:32:56;98822.13;;;23.11;68.38
77410;BME280;66481;51.332;22.804;2023-09-19T06:36:57;98807.75;;;23.49;66.09
77410;BME280;66481;51.332;22.804;2023-09-19T06:40:59;98820.47;;;23.99;65.85
77410;BME280;66481;51.332;22.804;2023-09-19T06:45:04;98817.22;;;23.90;64.78
77410;BME280;66481;51.332;22.804;2023-09-19T06:49:06;98813.34;;;23.79;65.18
77410;BME280;66481;51.332;22.804;2023-09-19T06:53:07;98817.69;;;22.78;67.58
77410;BME280;66481;51.332;22.804;2023-09-19T06:57:09;98824.09;;;22.32;69.55
77410;BME280;66481;51.332;22.804;2023-09-19T07:01:11;98818.97;;;21.70;70.44
77410;BME280;66481;51.332;22.804;2023-09-19T07:05:12;98833.88;;;21.86;70.40
77410;BME280;66481;51.332;22.804;2023-09-19T07:09:13;98832.22;;;21.72;70.87
77410;BME280;66481;51.332;22.804;2023-09-19T07:13:15;98833.41;;;21.29;72.62
77410;BME280;66481;51.332;22.804;2023-09-19T07:17:17;98827.16;;;21.15;73.26
77410;BME280;66481;51.332;22.804;2023-09-19T07:21:19;98840.56;;;21.02;74.48
77410;BME280;66481;51.332;22.804;2023-09-19T07:25:21;98844.19;;;20.74;74.28
77410;BME280;66481;51.332;22.804;2023-09-19T07:29:22;98843.25;;;21.02;74.20
77410;BME280;66481;51.332;22.804;2023-09-19T07:33:24;98852.81;;;21.11;73.80
77410;BME280;66481;51.332;22.804;2023-09-19T07:37:27;98847.56;;;20.90;73.32
77410;BME280;66481;51.332;22.804;2023-09-19T07:41:28;98851.31;;;21.02;72.95
77410;BME280;66481;51.332;22.804;2023-09-19T07:45:31;98841.78;;;20.93;73.35
77410;BME280;66481;51.332;22.804;2023-09-19T07:49:32;98848.47;;;21.10;73.58
77410;BME280;66481;51.332;22.804;2023-09-19T07:53:34;98853.47;;;20.65;74.21
77410;BME280;66481;51.332;22.804;2023-09-19T07:57:35;98870.22;;;20.67;74.63
77410;BME280;66481;51.332;22.804;2023-09-19T08:01:38;98870.81;;;20.62;75.14
77410;BME280;66481;51.332;22.804;2023-09-19T08:05:40;98856.09;;;20.58;74.88
77410;BME280;66481;51.332;22.804;2023-09-19T08:09:43;98860.06;;;20.62;74.45
77410;BME280;66481;51.332;22.804;2023-09-19T08:13:50;98861.97;;;20.34;75.06
77410;BME280;66481;51.332;22.804;2023-09-19T08:17:51;98868.53;;;20.31;75.76
77410;BME280;66481;51.332;22.804;2023-09-19T08:21:52;98864.44;;;20.35;75.93
77410;BME280;66481;51.332;22.804;2023-09-19T08:25:56;98859.31;;;20.40;75.29
77410;BME280;66481;51.332;22.804;2023-09-19T08:29:59;98862.66;;;20.14;75.83
77410;BME280;66481;51.332;22.804;2023-09-19T08:34:00;98859.94;;;20.07;76.26
77410;BME280;66481;51.332;22.804;2023-09-19T08:38:01;98866.00;;;19.95;76.28
77410;BME280;66481;51.332;22.804;2023-09-19T08:42:04;98873.06;;;19.96;76.58
77410;BME280;66481;51.332;22.804;2023-09-19T08:50:23;98860.31;;;19.76;77.32
77410;BME280;66481;51.332;22.804;2023-09-19T08:54:30;98868.41;;;19.83;77.94
77410;BME280;66481;51.332;22.804;2023-09-19T08:58:39;98864.25;;;19.80;77.51
77410;BME280;66481;51.332;22.804;2023-09-19T09:02:42;98859.28;;;19.77;78.04
77410;BME280;66481;51.332;22.804;2023-09-19T09:06:44;98864.09;;;19.67;78.68
77410;BME280;66481;51.332;22.804;2023-09-19T09:10:49;98866.28;;;19.57;78.95
77410;BME280;66481;51.332;22.804;2023-09-19T09:14:50;98873.78;;;19.40;80.10
77410;BME280;66481;51.332;22.804;2023-09-19T09:18:53;98874.75;;;19.17;81.67
77410;BME280;66481;51.332;22.804;2023-09-19T09:22:56;98869.19;;;18.97;84.00
77410;BME280;66481;51.332;22.804;2023-09-19T09:27:03;98875.66;;;18.73;86.67
77410;BME280;66481;51.332;22.804;2023-09-19T09:31:06;98876.84;;;18.70;88.96
77410;BME280;66481;51.332;22.804;2023-09-19T09:35:11;98864.94;;;18.73;88.23
77410;BME280;66481;51.332;22.804;2023-09-19T09:39:30;98874.19;;;18.85;88.87
77410;BME280;66481;51.332;22.804;2023-09-19T09:43:37;98887.31;;;18.95;87.03
77410;BME280;66481;51.332;22.804;2023-09-19T09:47:48;98869.53;;;19.09;86.95
77410;BME280;66481;51.332;22.804;2023-09-19T09:52:04;98878.09;;;19.19;87.78
77410;BME280;66481;51.332;22.804;2023-09-19T09:56:09;98880.91;;;19.32;87.39
77410;BME280;66481;51.332;22.804;2023-09-19T10:00:11;98886.00;;;19.27;86.32
77410;BME280;66481;51.332;22.804;2023-09-19T10:04:11;98873.03;;;19.31;84.87
77410;BME280;66481;51.332;22.804;2023-09-19T10:08:29;98875.94;;;19.29;87.12
77410;BME280;66481;51.332;22.804;2023-09-19T10:12:32;98884.16;;;19.28;88.67
77410;BME280;66481;51.332;22.804;2023-09-19T10:16:46;98883.84;;;19.16;91.54
77410;BME280;66481;51.332;22.804;2023-09-19T10:20:48;98876.06;;;19.21;92.13
77410;BME280;66481;51.332;22.804;2023-09-19T10:24:53;98871.88;;;19.19;91.21
77410;BME280;66481;51.332;22.804;2023-09-19T10:28:55;98872.22;;;19.30;91.71
77410;BME280;66481;51.332;22.804;2023-09-19T10:33:02;98869.75;;;19.50;90.53
77410;BME280;66481;51.332;22.804;2023-09-19T10:37:04;98863.69;;;19.42;90.75
77410;BME280;66481;51.332;22.804;2023-09-19T10:41:07;98864.38;;;19.50;90.80
77410;BME280;66481;51.332;22.804;2023-09-19T10:45:09;98865.91;;;19.38;90.63
77410;BME280;66481;51.332;22.804;2023-09-19T10:49:14;98856.06;;;19.24;89.89
77410;BME280;66481;51.332;22.804;2023-09-19T10:53:16;98864.88;;;19.17;88.45
77410;BME280;66481;51.332;22.804;2023-09-19T10:57:22;98858.66;;;19.17;87.41
77410;BME280;66481;51.332;22.804;2023-09-19T11:01:48;98859.81;;;19.08;87.43
77410;BME280;66481;51.332;22.804;2023-09-19T11:06:15;98857.03;;;19.01;88.70
77410;BME280;66481;51.332;22.804;2023-09-19T11:10:47;98859.78;;;18.86;88.31
77410;BME280;66481;51.332;22.804;2023-09-19T11:14:49;98854.22;;;18.73;87.82
77410;BME280;66481;51.332;22.804;2023-09-19T11:18:52;98848.13;;;18.64;88.82
77410;BME280;66481;51.332;22.804;2023-09-19T11:27:18;98849.25;;;18.55;89.02
77410;BME280;66481;51.332;22.804;2023-09-19T11:31:42;98849.72;;;18.44;89.21
77410;BME280;66481;51.332;22.804;2023-09-19T11:40:24;98846.63;;;18.02;91.13
77410;BME280;66481;51.332;22.804;2023-09-19T11:44:33;98844.47;;;17.82;93.21
77410;BME280;66481;51.332;22.804;2023-09-19T11:48:35;98853.28;;;17.45;96.63
77410;BME280;66481;51.332;22.804;2023-09-19T11:52:39;98872.44;;;17.02;100.00
77410;BME280;66481;51.332;22.804;2023-09-19T11:56:43;98881.03;;;16.81;100.00
77410;BME280;66481;51.332;22.804;2023-09-19T12:00:54;98885.59;;;16.64;100.00
77410;BME280;66481;51.332;22.804;2023-09-19T12:04:58;98890.31;;;16.54;100.00
77410;BME280;66481;51.332;22.804;2023-09-19T12:09:00;98889.97;;;16.57;100.00
77410;BME280;66481;51.332;22.804;2023-09-19T12:13:07;98888.84;;;16.51;100.00
77410;BME280;66481;51.332;22.804;2023-09-19T12:17:10;98892.16;;;16.53;100.00
77410;BME280;66481;51.332;22.804;2023-09-19T12:21:27;98889.16;;;16.57;100.00
77410;BME280;66481;51.332;22.804;2023-09-19T12:25:43;98897.66;;;16.52;100.00
77410;BME280;66481;51.332;22.804;2023-09-19T12:29:49;98899.03;;;16.48;100.00
77410;BME280;66481;51.332;22.804;2023-09-19T12:33:54;98902.84;;;16.45;100.00
77410;BME280;66481;51.332;22.804;2023-09-19T12:37:56;98901.88;;;16.38;100.00
77410;BME280;66481;51.332;22.804;2023-09-19T12:41:58;98891.53;;;16.43;100.00
77410;BME280;66481;51.332;22.804;2023-09-19T12:46:00;98899.19;;;16.54;100.00
77410;BME280;66481;51.332;22.804;2023-09-19T12:50:09;98901.84;;;16.54;100.00
77410;BME280;66481;51.332;22.804;2023-09-19T12:54:14;98904.84;;;16.60;100.00
77410;BME280;66481;51.332;22.804;2023-09-19T12:58:16;98892.31;;;16.60;100.00
77410;BME280;66481;51.332;22.804;2023-09-19T13:02:19;98901.31;;;16.59;100.00
77410;BME280;66481;51.332;22.804;2023-09-19T13:06:37;98892.97;;;16.62;100.00
77410;BME280;66481;51.332;22.804;2023-09-19T13:15:13;98896.25;;;16.89;100.00
77410;BME280;66481;51.332;22.804;2023-09-19T13:19:41;98894.00;;;17.01;100.00
77410;BME280;66481;51.332;22.804;2023-09-19T13:23:46;98889.31;;;17.03;100.00
77410;BME280;66481;51.332;22.804;2023-09-19T13:27:52;98884.53;;;17.21;100.00
77410;BME280;66481;51.332;22.804;2023-09-19T13:31:55;98882.63;;;17.30;100.00
77410;BME280;66481;51.332;22.804;2023-09-19T13:35:55;98887.88;;;17.46;100.00
77410;BME280;66481;51.332;22.804;2023-09-19T13:39:58;98882.06;;;17.43;100.00
77410;BME280;66481;51.332;22.804;2023-09-19T13:44:00;98884.91;;;17.41;100.00
77410;BME280;66481;51.332;22.804;2023-09-19T13:48:01;98873.13;;;17.51;100.00
77410;BME280;66481;51.332;22.804;2023-09-19T13:52:03;98871.97;;;17.53;100.00
77410;BME280;66481;51.332;22.804;2023-09-19T13:56:05;98878.44;;;17.59;100.00
77410;BME280;66481;51.332;22.804;2023-09-19T14:00:07;98870.06;;;17.62;100.00
77410;BME280;66481;51.332;22.804;2023-09-19T14:04:10;98875.53;;;17.69;100.00
77410;BME280;66481;51.332;22.804;2023-09-19T14:08:12;98872.38;;;17.65;100.00
77410;BME280;66481;51.332;22.804;2023-09-19T14:12:14;98871.09;;;17.53;100.00
77410;BME280;66481;51.332;22.804;2023-09-19T14:16:16;98870.72;;;17.41;100.00
77410;BME280;66481;51.332;22.804;2023-09-19T14:20:18;98880.25;;;17.35;100.00
77410;BME280;66481;51.332;22.804;2023-09-19T14:24:19;98880.13;;;17.28;100.00
77410;BME280;66481;51.332;22.804;2023-09-19T14:28:21;98882.81;;;17.28;100.00
77410;BME280;66481;51.332;22.804;2023-09-19T14:32:23;98889.31;;;17.34;100.00
77410;BME280;66481;51.332;22.804;2023-09-19T14:36:25;98888.66;;;17.32;100.00
77410;BME280;66481;51.332;22.804;2023-09-19T14:40:27;98889.66;;;17.31;100.00
77410;BME280;66481;51.332;22.804;2023-09-19T14:44:28;98893.47;;;17.37;100.00
77410;BME280;66481;51.332;22.804;2023-09-19T14:53:46;98902.50;;;17.36;100.00
77410;BME280;66481;51.332;22.804;2023-09-19T14:57:50;98900.34;;;17.31;100.00
77410;BME280;66481;51.332;22.804;2023-09-19T15:01:55;98895.03;;;17.23;100.00
77410;BME280;66481;51.332;22.804;2023-09-19T15:06:01;98897.84;;;17.29;100.00
77410;BME280;66481;51.332;22.804;2023-09-19T15:10:04;98892.84;;;17.26;100.00
77410;BME280;66481;51.332;22.804;2023-09-19T15:14:08;98900.41;;;17.23;100.00
77410;BME280;66481;51.332;22.804;2023-09-19T15:18:09;98902.59;;;17.19;100.00
77410;BME280;66481;51.332;22.804;2023-09-19T15:22:10;98905.91;;;17.21;100.00
77410;BME280;66481;51.332;22.804;2023-09-19T15:26:14;98907.28;;;17.17;100.00
77410;BME280;66481;51.332;22.804;2023-09-19T15:30:21;98899.78;;;17.13;100.00
77410;BME280;66481;51.332;22.804;2023-09-19T15:34:22;98912.97;;;17.14;100.00
77410;BME280;66481;51.332;22.804;2023-09-19T15:38:23;98917.16;;;17.17;100.00
77410;BME280;66481;51.332;22.804;2023-09-19T15:42:25;98919.53;;;17.12;100.00
77410;BME280;66481;51.332;22.804;2023-09-19T15:46:27;98920.22;;;17.05;100.00
77410;BME280;66481;51.332;22.804;2023-09-19T15:50:30;98923.91;;;17.04;100.00
77410;BME280;66481;51.332;22.804;2023-09-19T15:54:31;98929.06;;;17.06;100.00
77410;BME280;66481;51.332;22.804;2023-09-19T15:58:34;98929.06;;;17.06;100.00
77410;BME280;66481;51.332;22.804;2023-09-19T16:02:35;98935.59;;;17.03;100.00
77410;BME280;66481;51.332;22.804;2023-09-19T16:06:37;98938.09;;;17.05;100.00
77410;BME280;66481;51.332;22.804;2023-09-19T16:10:41;98940.94;;;17.03;100.00
77410;BME280;66481;51.332;22.804;2023-09-19T16:14:43;98940.78;;;17.05;100.00
77410;BME280;66481;51.332;22.804;2023-09-19T16:18:54;98939.63;;;16.99;100.00
77410;BME280;66481;51.332;22.804;2023-09-19T16:22:58;98949.63;;;16.97;100.00
77410;BME280;66481;51.332;22.804;2023-09-19T16:26:59;98951.97;;;17.00;100.00
77410;BME280;66481;51.332;22.804;2023-09-19T16:31:01;98961.03;;;16.91;100.00
77410;BME280;66481;51.332;22.804;2023-09-19T16:35:05;98972.34;;;17.01;100.00
77410;BME280;66481;51.332;22.804;2023-09-19T16:39:07;98971.88;;;16.98;100.00
77410;BME280;66481;51.332;22.804;2023-09-19T16:43:09;98970.69;;;16.92;100.00
77410;BME280;66481;51.332;22.804;2023-09-19T16:47:09;98982.41;;;16.91;100.00
77410;BME280;66481;51.332;22.804;2023-09-19T16:51:12;98991.56;;;16.97;100.00
77410;BME280;66481;51.332;22.804;2023-09-19T16:55:14;98987.28;;;16.87;100.00
77410;BME280;66481;51.332;22.804;2023-09-19T16:59:17;99000.78;;;16.94;100.00
77410;BME280;66481;51.332;22.804;2023-09-19T17:03:21;99000.59;;;16.96;100.00
77410;BME280;66481;51.332;22.804;2023-09-19T17:07:35;99005.50;;;16.84;100.00
77410;BME280;66481;51.332;22.804;2023-09-19T17:11:40;98990.59;;;16.81;100.00
77410;BME280;66481;51.332;22.804;2023-09-19T17:15:41;98999.31;;;16.75;100.00
77410;BME280;66481;51.332;22.804;2023-09-19T17:19:43;99010.84;;;16.84;100.00
77410;BME280;66481;51.332;22.804;2023-09-19T17:23:46;99016.97;;;16.76;100.00
77410;BME280;66481;51.332;22.804;2023-09-19T17:27:47;99033.34;;;16.73;100.00
77410;BME280;66481;51.332;22.804;2023-09-19T17:31:48;99031.88;;;16.70;100.00
77410;BME280;66481;51.332;22.804;2023-09-19T17:35:52;99036.72;;;16.67;100.00
77410;BME280;66481;51.332;22.804;2023-09-19T17:39:54;99036.72;;;16.67;100.00
77410;BME280;66481;51.332;22.804;2023-09-19T17:43:58;99046.25;;;16.61;100.00
77410;BME280;66481;51.332;22.804;2023-09-19T17:48:01;99049.56;;;16.63;100.00
77410;BME280;66481;51.332;22.804;2023-09-19T17:52:03;99056.56;;;16.64;100.00
77410;BME280;66481;51.332;22.804;2023-09-19T17:56:07;99061.75;;;16.74;100.00
77410;BME280;66481;51.332;22.804;2023-09-19T18:00:12;99060.25;;;16.71;100.00
77410;BME280;66481;51.332;22.804;2023-09-19T18:04:16;99069.59;;;16.76;100.00
77410;BME280;66481;51.332;22.804;2023-09-19T18:08:21;99072.44;;;16.74;100.00
77410;BME280;66481;51.332;22.804;2023-09-19T18:12:23;99076.09;;;16.73;100.00
77410;BME280;66481;51.332;22.804;2023-09-19T18:16:28;99081.28;;;16.74;100.00
77410;BME280;66481;51.332;22.804;2023-09-19T18:20:36;99077.94;;;16.72;100.00
77410;BME280;66481;51.332;22.804;2023-09-19T18:24:40;99087.13;;;16.70;100.00
77410;BME280;66481;51.332;22.804;2023-09-19T18:28:43;99094.47;;;16.68;100.00
77410;BME280;66481;51.332;22.804;2023-09-19T18:32:45;99094.47;;;16.68;100.00
77410;BME280;66481;51.332;22.804;2023-09-19T18:36:50;99093.63;;;16.67;100.00
77410;BME280;66481;51.332;22.804;2023-09-19T18:40:51;99105.69;;;16.71;100.00
77410;BME280;66481;51.332;22.804;2023-09-19T18:44:52;99103.16;;;16.70;100.00
77410;BME280;66481;51.332;22.804;2023-09-19T18:48:54;99115.00;;;16.76;100.00
77410;BME280;66481;51.332;22.804;2023-09-19T18:52:57;99116.53;;;16.86;100.00
77410;BME280;66481;51.332;22.804;2023-09-19T18:57:02;99125.22;;;16.88;100.00
77410;BME280;66481;51.332;22.804;2023-09-19T19:01:08;99126.91;;;16.89;100.00
77410;BME280;66481;51.332;22.804;2023-09-19T19:05:10;99114.84;;;16.94;100.00
77410;BME280;66481;51.332;22.804;2023-09-19T19:09:12;99131.53;;;16.96;100.00
77410;BME280;66481;51.332;22.804;2023-09-19T19:13:14;99123.88;;;16.92;100.00
77410;BME280;66481;51.332;22.804;2023-09-19T19:17:16;99131.75;;;16.94;100.00
77410;BME280;66481;51.332;22.804;2023-09-19T19:21:25;99143.09;;;16.96;100.00
77410;BME280;66481;51.332;22.804;2023-09-19T19:25:30;99144.91;;;16.96;100.00
77410;BME280;66481;51.332;22.804;2023-09-19T19:29:33;99148.59;;;17.03;100.00
77410;BME280;66481;51.332;22.804;2023-09-19T19:33:36;99144.41;;;17.00;100.00
77410;BME280;66481;51.332;22.804;2023-09-19T19:37:38;99147.09;;;17.08;100.00
77410;BME280;66481;51.332;22.804;2023-09-19T19:41:40;99158.59;;;17.01;100.00
77410;BME280;66481;51.332;22.804;2023-09-19T19:45:41;99150.78;;;16.99;100.00
77410;BME280;66481;51.332;22.804;2023-09-19T19:49:42;99155.09;;;16.92;100.00
77410;BME280;66481;51.332;22.804;2023-09-19T19:53:44;99153.78;;;16.88;100.00
77410;BME280;66481;51.332;22.804;2023-09-19T19:57:45;99167.47;;;16.93;100.00
77410;BME280;66481;51.332;22.804;2023-09-19T20:01:48;99174.50;;;16.94;100.00
77410;BME280;66481;51.332;22.804;2023-09-19T20:05:49;99179.34;;;16.90;100.00
77410;BME280;66481;51.332;22.804;2023-09-19T20:09:50;99179.34;;;16.90;100.00
77410;BME280;66481;51.332;22.804;2023-09-19T20:13:51;99177.50;;;16.91;100.00
77410;BME280;66481;51.332;22.804;2023-09-19T20:17:52;99175.31;;;16.86;100.00
77410;BME280;66481;51.332;22.804;2023-09-19T20:22:00;99186.50;;;16.90;100.00
77410;BME280;66481;51.332;22.804;2023-09-19T20:26:02;99192.19;;;16.87;100.00
77410;BME280;66481;51.332;22.804;2023-09-19T20:30:06;99191.53;;;16.85;100.00
77410;BME280;66481;51.332;22.804;2023-09-19T20:34:08;99189.34;;;16.88;100.00
77410;BME280;66481;51.332;22.804;2023-09-19T20:38:10;99198.72;;;16.92;100.00
77410;BME280;66481;51.332;22.804;2023-09-19T20:42:12;99198.56;;;16.86;100.00
77410;BME280;66481;51.332;22.804;2023-09-19T20:46:14;99189.72;;;16.85;100.00
77410;BME280;66481;51.332;22.804;2023-09-19T20:50:16;99195.06;;;16.85;100.00
77410;BME280;66481;51.332;22.804;2023-09-19T20:54:17;99198.34;;;16.79;100.00
77410;BME280;66481;51.332;22.804;2023-09-19T20:58:19;99201.53;;;16.66;100.00
77410;BME280;66481;51.332;22.804;2023-09-19T21:02:20;99203.50;;;16.64;100.00
77410;BME280;66481;51.332;22.804;2023-09-19T21:06:21;99194.16;;;16.60;100.00
77410;BME280;66481;51.332;22.804;2023-09-19T21:10:21;99203.66;;;16.54;100.00
77410;BME280;66481;51.332;22.804;2023-09-19T21:14:22;99204.66;;;16.53;100.00
77410;BME280;66481;51.332;22.804;2023-09-19T21:18:23;99198.47;;;16.45;100.00
77410;BME280;66481;51.332;22.804;2023-09-19T21:22:25;99203.63;;;16.46;100.00
77410;BME280;66481;51.332;22.804;2023-09-19T21:26:27;99199.63;;;16.34;100.00
77410;BME280;66481;51.332;22.804;2023-09-19T21:30:28;99202.78;;;16.38;100.00
77410;BME280;66481;51.332;22.804;2023-09-19T21:34:28;99211.28;;;16.33;100.00
77410;BME280;66481;51.332;22.804;2023-09-19T21:38:30;99213.75;;;16.26;100.00